CheckWX is a tool to help pilots better visualize weather data.  It is not intended as a substitute for an official pre-flight weather briefing.

14:35:55 UTC

KEND METAR
Vance AFB Airport
Enid, Oklahoma, USA
Current

40 mins ago

KEND 261356Z AUTO 32005KT 10SM CLR 14/13 A3019 RMK AO2 SLP222 T01350132 $
Observed
Apr-26 @ 13:56 UTC
Wind
  • 320° at 5 KTS
Visibility
10 SM
Flight Rules
VFR
Cloud Levels
  • Clear skies
Temperature
14°C / 57°F
Dewpoint
13°C / 55°F
Humidity
94%
Altimeter
30.19" Hg
Pressure
1022.32 hPa
Previous

2 hours ago

KEND 261256Z AUTO 32004KT 10SM CLR 10/10 A3017 RMK AO2 SLP215 T00990099 $
Observed
Apr-26 @ 12:56 UTC
Wind
  • 320° at 4 KTS
Visibility
10 SM
Flight Rules
VFR
Cloud Levels
  • Clear skies
Temperature
10°C / 50°F
Dewpoint
10°C / 50°F
Humidity
100%
Altimeter
30.17" Hg
Pressure
1021.72 hPa
Previous

3 hours ago

KEND 261156Z AUTO 29005KT 10SM CLR 07/07 A3015 RMK AO2 SLP209 T00740074 10124 20074 52008 $
Observed
Apr-26 @ 11:56 UTC
Wind
  • 290° at 5 KTS
Visibility
10 SM
Flight Rules
VFR
Cloud Levels
  • Clear skies
Temperature
C / 45°F
Dewpoint
C / 45°F
Humidity
100%
Altimeter
30.15" Hg
Pressure
1021.02 hPa